メインページ
METAR-TAF:

METAR-TAF

空港 :

シアトル / タコマ, ワシントン, アメリカ合衆国

シアトル・タコマ国際空港

緯度: 47-26-41N, 経度: 122-18-49W, 海抜: 130m

現時点の気象観測

当レポートは27分前の22:53(UTC)に作成
の風 9kt
気温 29°C
湿度 27%
気圧 1018 hPa
視程: 16.1km
高度5000ftの雲はほとんどない

METAR: KSEA 272253Z 01009KT 10SM FEW050 29/08 A3006 RMK AO2 SLP184 T02890078

時間: 16:20 (23:20 UTC)

予報

当レポートは2時間19分前の21:01(UTC)に作成
予報は27日の 21時(UTC)から 28日の 24時(UTC)まで有効
北西の風 9kt
視程: 10km
晴天
28日の 0300時(UTC)から
の風 5kt
視程: 10km
高度8000ftの雲は散在している
28日の 0900時(UTC)から
変向風 3kt
視程: 10km
晴天
28日の 1800時(UTC)から
北西の風 8kt
視程: 10km
晴天

TAF: KSEA 272101Z 2721/2824 31009KT P6SM SKC FM280300 01005KT P6SM SCT080 FM280900 VRB03KT P6SM SKC FM281800 31008KT P6SM SKC

4,000以上の空港の気象観測と天気予報(METAR報とTAF報)

利用可能な観測所は地図上に黄色い丸と赤い丸で示す。

丸の上にカーソルを重ねると観測所名を参照できる。

次にクリックすると気象観測と天気予報を参照できる。

マップの切り替え:黒色「×」印の緑ボタンをクリックして拡大、「-」印の緑ボタンをクリックして縮小、緑色の三角印をクリックして隣りの地図に切り替え


METAR-TAF: